sensor_id;sensor_type;location;lat;lon;timestamp;pressure;altitude;pressure_sealevel;temperature;humidity
46598;BME280;32318;48.858;8.252;2024-01-27T00:04:57;102169.09;;;4.86;98.39
46598;BME280;32318;48.858;8.252;2024-01-27T00:12:57;102153.78;;;4.75;98.62
46598;BME280;32318;48.858;8.252;2024-01-27T00:20:58;102162.47;;;4.77;99.39
46598;BME280;32318;48.858;8.252;2024-01-27T00:28:58;102165.53;;;4.69;98.94
46598;BME280;32318;48.858;8.252;2024-01-27T00:36:58;102163.44;;;4.59;98.63
46598;BME280;32318;48.858;8.252;2024-01-27T00:44:58;102170.50;;;4.58;98.09
46598;BME280;32318;48.858;8.252;2024-01-27T00:52:58;102170.34;;;4.44;97.72
46598;BME280;32318;48.858;8.252;2024-01-27T01:00:59;102173.09;;;4.42;98.92
46598;BME280;32318;48.858;8.252;2024-01-27T01:09:02;102178.38;;;4.42;99.01
46598;BME280;32318;48.858;8.252;2024-01-27T01:17:03;102195.44;;;4.35;98.07
46598;BME280;32318;48.858;8.252;2024-01-27T01:25:05;102182.97;;;4.19;97.33
46598;BME280;32318;48.858;8.252;2024-01-27T01:33:05;102192.78;;;4.17;97.64
46598;BME280;32318;48.858;8.252;2024-01-27T01:41:06;102213.28;;;4.12;97.54
46598;BME280;32318;48.858;8.252;2024-01-27T01:49:07;102218.72;;;4.09;97.80
46598;BME280;32318;48.858;8.252;2024-01-27T01:57:08;102229.47;;;4.06;98.27
46598;BME280;32318;48.858;8.252;2024-01-27T02:05:08;102238.75;;;3.96;97.13
46598;BME280;32318;48.858;8.252;2024-01-27T02:13:17;102245.09;;;3.91;97.86
46598;BME280;32318;48.858;8.252;2024-01-27T02:21:19;102255.94;;;3.85;97.14
46598;BME280;32318;48.858;8.252;2024-01-27T02:29:21;102251.28;;;3.71;96.41
46598;BME280;32318;48.858;8.252;2024-01-27T02:37:22;102261.22;;;3.66;97.24
46598;BME280;32318;48.858;8.252;2024-01-27T02:45:25;102261.34;;;3.63;96.75
46598;BME280;32318;48.858;8.252;2024-01-27T02:53:25;102264.56;;;3.51;96.71
46598;BME280;32318;48.858;8.252;2024-01-27T03:01:25;102272.28;;;3.55;97.56
46598;BME280;32318;48.858;8.252;2024-01-27T03:09:26;102272.50;;;3.49;96.64
46598;BME280;32318;48.858;8.252;2024-01-27T03:17:26;102276.09;;;3.48;97.22
46598;BME280;32318;48.858;8.252;2024-01-27T03:25:26;102279.06;;;3.40;96.44
46598;BME280;32318;48.858;8.252;2024-01-27T03:33:26;102273.06;;;3.37;96.16
46598;BME280;32318;48.858;8.252;2024-01-27T03:41:29;102285.75;;;3.28;96.51
46598;BME280;32318;48.858;8.252;2024-01-27T03:49:29;102277.22;;;3.22;96.67
46598;BME280;32318;48.858;8.252;2024-01-27T03:57:29;102297.09;;;3.10;96.01
46598;BME280;32318;48.858;8.252;2024-01-27T04:05:30;102302.59;;;3.04;96.76
46598;BME280;32318;48.858;8.252;2024-01-27T04:13:33;102301.16;;;2.96;95.89
46598;BME280;32318;48.858;8.252;2024-01-27T04:21:33;102310.25;;;2.89;96.11
46598;BME280;32318;48.858;8.252;2024-01-27T04:29:36;102315.78;;;2.83;96.67
46598;BME280;32318;48.858;8.252;2024-01-27T04:37:37;102323.81;;;2.80;96.87
46598;BME280;32318;48.858;8.252;2024-01-27T04:45:37;102324.00;;;2.75;96.58
46598;BME280;32318;48.858;8.252;2024-01-27T04:53:37;102316.22;;;2.72;96.20
46598;BME280;32318;48.858;8.252;2024-01-27T05:01:38;102323.41;;;2.69;96.37
46598;BME280;32318;48.858;8.252;2024-01-27T05:09:38;102320.00;;;2.65;96.40
46598;BME280;32318;48.858;8.252;2024-01-27T05:17:38;102307.88;;;2.61;95.96
46598;BME280;32318;48.858;8.252;2024-01-27T05:25:39;102300.81;;;2.61;96.58
46598;BME280;32318;48.858;8.252;2024-01-27T05:33:39;102304.56;;;2.56;95.68
46598;BME280;32318;48.858;8.252;2024-01-27T05:41:40;102307.31;;;2.53;96.11
46598;BME280;32318;48.858;8.252;2024-01-27T05:49:41;102313.69;;;2.47;95.83
46598;BME280;32318;48.858;8.252;2024-01-27T05:57:41;102309.06;;;2.30;94.91
46598;BME280;32318;48.858;8.252;2024-01-27T06:05:41;102301.38;;;2.24;95.80
46598;BME280;32318;48.858;8.252;2024-01-27T06:13:42;102326.91;;;2.23;96.03
46598;BME280;32318;48.858;8.252;2024-01-27T06:21:43;102330.28;;;2.27;97.06
46598;BME280;32318;48.858;8.252;2024-01-27T06:29:44;102331.81;;;2.32;97.38
46598;BME280;32318;48.858;8.252;2024-01-27T06:37:44;102348.31;;;2.38;97.14
46598;BME280;32318;48.858;8.252;2024-01-27T06:45:44;102340.66;;;2.31;95.98
46598;BME280;32318;48.858;8.252;2024-01-27T06:53:45;102339.34;;;2.19;95.98
46598;BME280;32318;48.858;8.252;2024-01-27T07:01:46;102343.06;;;2.14;95.49
46598;BME280;32318;48.858;8.252;2024-01-27T07:09:48;102335.56;;;2.03;95.08
46598;BME280;32318;48.858;8.252;2024-01-27T07:17:51;102347.22;;;1.96;95.60
46598;BME280;32318;48.858;8.252;2024-01-27T07:25:51;102343.09;;;1.88;95.42
46598;BME280;32318;48.858;8.252;2024-01-27T07:33:51;102344.41;;;2.00;96.80
46598;BME280;32318;48.858;8.252;2024-01-27T07:41:52;102357.38;;;2.07;96.82
46598;BME280;32318;48.858;8.252;2024-01-27T07:49:52;102334.34;;;2.12;96.07
46598;BME280;32318;48.858;8.252;2024-01-27T07:57:53;102342.91;;;2.17;95.82
46598;BME280;32318;48.858;8.252;2024-01-27T08:05:54;102342.56;;;2.26;96.31
46598;BME280;32318;48.858;8.252;2024-01-27T08:13:56;102331.81;;;2.32;96.32
46598;BME280;32318;48.858;8.252;2024-01-27T08:21:56;102347.28;;;2.42;95.84
46598;BME280;32318;48.858;8.252;2024-01-27T08:29:57;102354.03;;;2.49;96.06
46598;BME280;32318;48.858;8.252;2024-01-27T08:37:57;102357.34;;;2.54;95.92
46598;BME280;32318;48.858;8.252;2024-01-27T08:46:00;102369.63;;;2.55;95.81
46598;BME280;32318;48.858;8.252;2024-01-27T08:54:03;102362.00;;;2.70;96.29
46598;BME280;32318;48.858;8.252;2024-01-27T09:02:03;102357.19;;;2.81;96.48
46598;BME280;32318;48.858;8.252;2024-01-27T09:10:04;102353.34;;;2.90;94.87
46598;BME280;32318;48.858;8.252;2024-01-27T09:18:04;102353.91;;;2.96;95.45
46598;BME280;32318;48.858;8.252;2024-01-27T09:26:05;102351.81;;;3.05;95.72
46598;BME280;32318;48.858;8.252;2024-01-27T09:34:06;102367.91;;;2.98;91.24
46598;BME280;32318;48.858;8.252;2024-01-27T09:42:07;102361.97;;;2.93;92.37
46598;BME280;32318;48.858;8.252;2024-01-27T09:50:11;102346.25;;;2.90;90.81
46598;BME280;32318;48.858;8.252;2024-01-27T09:58:12;102338.22;;;2.93;90.48
46598;BME280;32318;48.858;8.252;2024-01-27T10:06:14;102333.25;;;2.86;91.73
46598;BME280;32318;48.858;8.252;2024-01-27T10:14:15;102325.81;;;2.95;91.36
46598;BME280;32318;48.858;8.252;2024-01-27T10:22:17;102328.69;;;3.11;91.14
46598;BME280;32318;48.858;8.252;2024-01-27T10:30:18;102333.28;;;3.28;90.68
46598;BME280;32318;48.858;8.252;2024-01-27T10:38:18;102341.56;;;3.40;90.92
46598;BME280;32318;48.858;8.252;2024-01-27T10:46:20;102323.50;;;3.51;90.08
46598;BME280;32318;48.858;8.252;2024-01-27T10:54:33;102302.75;;;3.63;90.18
46598;BME280;32318;48.858;8.252;2024-01-27T11:02:36;102313.97;;;3.68;90.25
46598;BME280;32318;48.858;8.252;2024-01-27T11:10:36;102309.28;;;3.74;90.27
46598;BME280;32318;48.858;8.252;2024-01-27T11:18:38;102304.16;;;3.90;90.20
46598;BME280;32318;48.858;8.252;2024-01-27T11:26:38;102286.47;;;4.12;89.06
46598;BME280;32318;48.858;8.252;2024-01-27T11:34:45;102265.59;;;4.24;88.34
46598;BME280;32318;48.858;8.252;2024-01-27T11:42:58;102257.72;;;4.42;88.99
46598;BME280;32318;48.858;8.252;2024-01-27T11:51:06;102269.41;;;4.55;89.36
46598;BME280;32318;48.858;8.252;2024-01-27T11:59:09;102254.34;;;4.75;89.44
46598;BME280;32318;48.858;8.252;2024-01-27T12:07:10;102250.13;;;4.89;89.00
46598;BME280;32318;48.858;8.252;2024-01-27T12:15:11;102238.94;;;5.01;88.85
46598;BME280;32318;48.858;8.252;2024-01-27T12:23:14;102229.41;;;5.14;88.41
46598;BME280;32318;48.858;8.252;2024-01-27T12:31:15;102228.47;;;5.33;87.07
46598;BME280;32318;48.858;8.252;2024-01-27T12:39:17;102214.34;;;5.50;86.11
46598;BME280;32318;48.858;8.252;2024-01-27T12:47:21;102217.97;;;5.81;84.20
46598;BME280;32318;48.858;8.252;2024-01-27T12:55:21;102211.59;;;6.01;81.87
46598;BME280;32318;48.858;8.252;2024-01-27T13:03:22;102198.50;;;6.14;79.45
46598;BME280;32318;48.858;8.252;2024-01-27T13:11:22;102186.84;;;6.33;77.70
46598;BME280;32318;48.858;8.252;2024-01-27T13:19:22;102178.25;;;6.43;76.97
46598;BME280;32318;48.858;8.252;2024-01-27T13:27:23;102165.31;;;6.53;75.46
46598;BME280;32318;48.858;8.252;2024-01-27T13:35:23;102166.19;;;6.68;74.39
46598;BME280;32318;48.858;8.252;2024-01-27T13:43:25;102149.72;;;6.78;73.33
46598;BME280;32318;48.858;8.252;2024-01-27T13:51:25;102159.97;;;6.84;72.92
46598;BME280;32318;48.858;8.252;2024-01-27T13:59:26;102144.22;;;6.95;72.13
46598;BME280;32318;48.858;8.252;2024-01-27T14:07:26;102148.03;;;7.05;71.90
46598;BME280;32318;48.858;8.252;2024-01-27T14:15:27;102142.06;;;7.16;70.96
46598;BME280;32318;48.858;8.252;2024-01-27T14:23:27;102138.28;;;7.20;70.23
46598;BME280;32318;48.858;8.252;2024-01-27T14:31:29;102124.44;;;7.30;70.97
46598;BME280;32318;48.858;8.252;2024-01-27T14:39:32;102105.53;;;7.34;70.39
46598;BME280;32318;48.858;8.252;2024-01-27T14:47:34;102106.94;;;7.54;67.31
46598;BME280;32318;48.858;8.252;2024-01-27T14:55:35;102092.75;;;7.68;65.24
46598;BME280;32318;48.858;8.252;2024-01-27T15:03:35;102099.06;;;7.53;65.63
46598;BME280;32318;48.858;8.252;2024-01-27T15:11:36;102089.00;;;7.29;67.54
46598;BME280;32318;48.858;8.252;2024-01-27T15:19:39;102083.19;;;7.10;68.20
46598;BME280;32318;48.858;8.252;2024-01-27T15:27:40;102089.41;;;6.94;69.41
46598;BME280;32318;48.858;8.252;2024-01-27T15:35:40;102089.13;;;6.70;70.62
46598;BME280;32318;48.858;8.252;2024-01-27T15:43:41;102106.16;;;6.51;71.24
46598;BME280;32318;48.858;8.252;2024-01-27T15:51:44;102094.56;;;6.38;71.23
46598;BME280;32318;48.858;8.252;2024-01-27T15:59:45;102109.47;;;6.10;72.57
46598;BME280;32318;48.858;8.252;2024-01-27T16:07:45;102098.16;;;5.90;73.18
46598;BME280;32318;48.858;8.252;2024-01-27T16:15:45;102106.97;;;5.75;73.42
46598;BME280;32318;48.858;8.252;2024-01-27T16:23:46;102108.97;;;5.71;72.05
46598;BME280;32318;48.858;8.252;2024-01-27T16:31:46;102107.31;;;5.69;70.78
46598;BME280;32318;48.858;8.252;2024-01-27T16:39:46;102113.66;;;5.50;71.35
46598;BME280;32318;48.858;8.252;2024-01-27T16:47:49;102115.69;;;5.45;71.05
46598;BME280;32318;48.858;8.252;2024-01-27T16:55:50;102113.78;;;5.31;71.29
46598;BME280;32318;48.858;8.252;2024-01-27T17:03:50;102112.75;;;5.17;72.31
46598;BME280;32318;48.858;8.252;2024-01-27T17:11:50;102116.91;;;5.06;73.27
46598;BME280;32318;48.858;8.252;2024-01-27T17:19:50;102108.03;;;4.73;77.15
46598;BME280;32318;48.858;8.252;2024-01-27T17:27:51;102099.94;;;4.59;77.96
46598;BME280;32318;48.858;8.252;2024-01-27T17:35:51;102097.31;;;4.41;80.18
46598;BME280;32318;48.858;8.252;2024-01-27T17:43:52;102099.50;;;4.33;82.22
46598;BME280;32318;48.858;8.252;2024-01-27T17:51:52;102106.72;;;4.12;83.78
46598;BME280;32318;48.858;8.252;2024-01-27T17:59:53;102107.38;;;3.98;84.07
46598;BME280;32318;48.858;8.252;2024-01-27T18:07:56;102110.78;;;4.00;85.00
46598;BME280;32318;48.858;8.252;2024-01-27T18:15:57;102105.25;;;3.87;85.82
46598;BME280;32318;48.858;8.252;2024-01-27T18:23:59;102116.78;;;3.86;85.49
46598;BME280;32318;48.858;8.252;2024-01-27T18:31:59;102102.56;;;3.69;84.72
46598;BME280;32318;48.858;8.252;2024-01-27T18:40:00;102100.72;;;3.52;84.45
46598;BME280;32318;48.858;8.252;2024-01-27T18:48:00;102109.72;;;3.29;84.47
46598;BME280;32318;48.858;8.252;2024-01-27T18:56:01;102119.19;;;3.14;86.33
46598;BME280;32318;48.858;8.252;2024-01-27T19:04:05;102111.41;;;3.11;85.49
46598;BME280;32318;48.858;8.252;2024-01-27T19:12:06;102103.19;;;2.98;87.37
46598;BME280;32318;48.858;8.252;2024-01-27T19:20:06;102105.13;;;2.94;88.15
46598;BME280;32318;48.858;8.252;2024-01-27T19:28:08;102097.47;;;2.88;87.58
46598;BME280;32318;48.858;8.252;2024-01-27T19:36:09;102097.75;;;2.82;88.78
46598;BME280;32318;48.858;8.252;2024-01-27T19:44:09;102098.34;;;2.89;88.94
46598;BME280;32318;48.858;8.252;2024-01-27T19:52:09;102081.78;;;2.85;88.37
46598;BME280;32318;48.858;8.252;2024-01-27T20:00:10;102092.75;;;2.76;88.82
46598;BME280;32318;48.858;8.252;2024-01-27T20:08:11;102075.19;;;2.75;89.05
46598;BME280;32318;48.858;8.252;2024-01-27T20:16:11;102079.81;;;2.70;89.44
46598;BME280;32318;48.858;8.252;2024-01-27T20:24:14;102081.28;;;2.56;89.16
46598;BME280;32318;48.858;8.252;2024-01-27T20:32:14;102075.34;;;2.51;89.16
46598;BME280;32318;48.858;8.252;2024-01-27T20:40:15;102083.97;;;2.34;89.82
46598;BME280;32318;48.858;8.252;2024-01-27T20:48:15;102099.06;;;2.30;90.31
46598;BME280;32318;48.858;8.252;2024-01-27T20:56:16;102099.53;;;2.19;89.16
46598;BME280;32318;48.858;8.252;2024-01-27T21:04:24;102097.13;;;2.13;89.64
46598;BME280;32318;48.858;8.252;2024-01-27T21:12:25;102100.00;;;2.07;89.80
46598;BME280;32318;48.858;8.252;2024-01-27T21:20:25;102080.41;;;1.92;89.46
46598;BME280;32318;48.858;8.252;2024-01-27T21:28:25;102080.59;;;1.87;90.04
46598;BME280;32318;48.858;8.252;2024-01-27T21:36:26;102071.47;;;1.96;89.68
46598;BME280;32318;48.858;8.252;2024-01-27T21:44:26;102070.63;;;1.73;89.26
46598;BME280;32318;48.858;8.252;2024-01-27T21:52:29;102054.97;;;1.70;90.37
46598;BME280;32318;48.858;8.252;2024-01-27T22:00:36;102050.72;;;1.66;90.47
46598;BME280;32318;48.858;8.252;2024-01-27T22:08:36;102056.16;;;1.62;90.97
46598;BME280;32318;48.858;8.252;2024-01-27T22:16:36;102055.06;;;1.67;91.06
46598;BME280;32318;48.858;8.252;2024-01-27T22:24:37;102042.72;;;1.69;90.75
46598;BME280;32318;48.858;8.252;2024-01-27T22:32:40;102037.97;;;1.78;91.18
46598;BME280;32318;48.858;8.252;2024-01-27T22:40:40;102031.81;;;1.79;90.87
46598;BME280;32318;48.858;8.252;2024-01-27T22:48:41;102024.09;;;1.74;92.40
46598;BME280;32318;48.858;8.252;2024-01-27T22:56:41;102020.47;;;1.77;92.35
46598;BME280;32318;48.858;8.252;2024-01-27T23:04:41;102019.56;;;1.78;92.58
46598;BME280;32318;48.858;8.252;2024-01-27T23:12:42;102023.22;;;1.73;91.50
46598;BME280;32318;48.858;8.252;2024-01-27T23:20:42;102026.06;;;1.69;92.31
46598;BME280;32318;48.858;8.252;2024-01-27T23:29:19;102026.53;;;1.79;92.03
46598;BME280;32318;48.858;8.252;2024-01-27T23:37:31;102027.56;;;1.75;90.86
46598;BME280;32318;48.858;8.252;2024-01-27T23:45:31;102008.97;;;1.57;90.72
46598;BME280;32318;48.858;8.252;2024-01-27T23:53:34;102002.78;;;1.58;91.37
